Time;durP1;ratioP1;P1;durP2;ratioP2;P2;SDS_P1;SDS_P2;PMS_P1;PMS_P2;Temp;Humidity;BMP_temperature;BMP_pressure;BME280_temperature;BME280_humidity;BME280_pressure;Samples;Min_cycle;Max_cycle;Signal;HPM_P1;HPM_P2
2021/10/08 00:01:49;;;;;;;0.40;0.20;;;8.30;99.90;;;;;;4972519;28;20407;-73
2021/10/08 00:04:15;;;;;;;0.40;0.30;;;8.50;99.90;;;;;;4973075;28;20475;-73
2021/10/08 00:06:41;;;;;;;0.40;0.40;;;8.30;99.90;;;;;;4971674;28;20420;-73
2021/10/08 00:09:07;;;;;;;0.40;0.20;;;8.00;99.90;;;;;;4972360;28;20484;-73
2021/10/08 00:11:33;;;;;;;0.40;0.20;;;7.90;99.90;;;;;;4972241;28;20877;-73
2021/10/08 00:13:58;;;;;;;0.40;0.20;;;8.10;99.90;;;;;;4971813;28;20384;-73
2021/10/08 00:16:24;;;;;;;0.40;0.20;;;8.00;99.90;;;;;;4972770;28;20423;-73
2021/10/08 00:18:50;;;;;;;0.40;0.30;;;8.00;99.90;;;;;;4972287;28;20388;-73
2021/10/08 00:21:16;;;;;;;0.40;0.20;;;8.40;99.90;;;;;;4972721;28;20381;-73
2021/10/08 00:23:42;;;;;;;0.40;0.20;;;8.30;99.90;;;;;;4971963;28;20471;-73
2021/10/08 00:26:07;;;;;;;2.80;0.70;;;8.10;99.90;;;;;;4972639;28;20559;-73
2021/10/08 00:28:33;;;;;;;0.40;0.20;;;8.00;99.90;;;;;;4972311;28;20459;-73
2021/10/08 00:30:59;;;;;;;0.40;0.30;;;8.20;99.90;;;;;;4971747;28;20939;-73
2021/10/08 00:33:25;;;;;;;0.40;0.30;;;8.00;99.90;;;;;;4972556;28;20466;-73
2021/10/08 00:35:51;;;;;;;0.40;0.20;;;7.90;99.90;;;;;;4954436;28;20491;-73
2021/10/08 00:38:16;;;;;;;0.40;0.28;;;8.30;99.90;;;;;;4972601;28;21000;-73
2021/10/08 00:40:47;;;;;;;0.40;0.40;;;8.00;99.90;;;;;;4972415;28;20474;-73
2021/10/08 00:43:20;;;;;;;0.50;0.50;;;8.00;99.90;;;;;;4972458;28;20392;-72
2021/10/08 00:45:47;;;;;;;0.80;0.60;;;7.90;99.90;;;;;;4982805;28;20496;-73
2021/10/08 00:48:12;;;;;;;0.40;0.22;;;8.90;99.90;;;;;;4991704;28;20386;-73
2021/10/08 00:50:41;;;;;;;0.70;0.63;;;8.00;99.90;;;;;;4991606;28;20394;-73
2021/10/08 00:53:07;;;;;;;0.40;0.25;;;8.70;99.90;;;;;;4991000;28;20791;-73
2021/10/08 00:55:34;;;;;;;0.70;0.70;;;7.60;99.90;;;;;;4991878;28;20495;-73
2021/10/08 00:58:00;;;;;;;0.40;0.20;;;7.70;99.90;;;;;;4973483;28;20402;-73
2021/10/08 01:00:26;;;;;;;0.40;0.40;;;7.90;99.90;;;;;;4991527;28;20387;-73
2021/10/08 01:02:51;;;;;;;0.90;0.80;;;7.70;99.90;;;;;;4990603;28;20874;-73
2021/10/08 01:05:17;;;;;;;0.90;0.90;;;8.20;99.90;;;;;;4991250;28;20895;-73
2021/10/08 01:07:43;;;;;;;0.40;0.30;;;7.20;99.90;;;;;;4991393;28;20440;-73
2021/10/08 01:10:09;;;;;;;0.70;0.70;;;7.50;99.90;;;;;;4990939;28;20391;-73
2021/10/08 01:12:35;;;;;;;0.40;0.20;;;7.50;99.90;;;;;;4991657;28;20404;-73
2021/10/08 01:15:01;;;;;;;0.40;0.30;;;7.60;99.90;;;;;;4990686;28;20387;-73
2021/10/08 01:17:27;;;;;;;0.40;0.20;;;7.10;99.90;;;;;;4991262;28;20387;-73
2021/10/08 01:19:53;;;;;;;0.40;0.20;;;7.90;99.90;;;;;;4989909;28;20393;-73
2021/10/08 01:22:19;;;;;;;0.40;0.20;;;7.00;99.90;;;;;;4991147;28;20919;-73
2021/10/08 01:24:45;;;;;;;0.40;0.30;;;7.60;99.90;;;;;;4991031;28;20379;-73
2021/10/08 01:27:10;;;;;;;0.40;0.22;;;7.70;99.90;;;;;;4991018;28;20450;-73
2021/10/08 01:30:07;;;;;;;0.40;0.20;;;7.40;99.90;;;;;;4991207;28;20426;-73
2021/10/08 01:32:34;;;;;;;0.40;0.20;;;7.60;99.90;;;;;;4958378;28;20402;-73
2021/10/08 01:35:00;;;;;;;0.40;0.30;;;7.70;99.90;;;;;;4990570;28;20442;-73
2021/10/08 01:37:26;;;;;;;0.40;0.20;;;8.10;99.90;;;;;;4991086;28;20387;-73
2021/10/08 01:39:51;;;;;;;1.20;0.50;;;7.60;99.90;;;;;;4990761;28;20474;-73
2021/10/08 01:42:17;;;;;;;0.40;0.20;;;7.60;99.90;;;;;;4991046;28;20386;-73
2021/10/08 01:44:43;;;;;;;0.40;0.20;;;7.60;99.90;;;;;;4987852;28;20391;-73
2021/10/08 01:47:09;;;;;;;0.40;0.30;;;7.40;99.90;;;;;;4970848;28;20398;-73
2021/10/08 01:49:34;;;;;;;0.50;0.50;;;7.10;99.90;;;;;;4971875;28;20415;-73
2021/10/08 01:52:03;;;;;;;0.40;0.20;;;7.40;99.90;;;;;;4970680;28;20450;-73
2021/10/08 01:54:29;;;;;;;0.40;0.20;;;7.50;99.90;;;;;;4971194;28;20396;-73
2021/10/08 01:56:54;;;;;;;0.40;0.30;;;7.30;99.90;;;;;;4970727;28;20460;-73
2021/10/08 01:59:20;;;;;;;0.40;0.20;;;7.50;99.90;;;;;;4954396;28;20790;-73
2021/10/08 02:01:46;;;;;;;0.40;0.30;;;7.30;99.90;;;;;;4971463;28;20396;-73
2021/10/08 02:04:12;;;;;;;0.40;0.20;;;7.40;99.90;;;;;;4970897;28;20384;-73
2021/10/08 02:06:38;;;;;;;0.40;0.30;;;7.40;99.90;;;;;;4971330;28;20750;-73
2021/10/08 02:09:04;;;;;;;0.40;0.20;;;8.10;99.90;;;;;;4970858;28;20385;-73
2021/10/08 02:11:30;;;;;;;0.40;0.28;;;8.40;99.90;;;;;;4971248;28;20391;-73
2021/10/08 02:13:56;;;;;;;0.40;0.20;;;7.50;99.90;;;;;;4970902;28;20392;-73
2021/10/08 02:16:21;;;;;;;0.50;0.50;;;7.10;99.90;;;;;;4971071;28;20446;-73
2021/10/08 02:18:49;;;;;;;0.40;0.40;;;6.90;99.90;;;;;;4953975;28;20408;-73
2021/10/08 02:21:15;;;;;;;0.40;0.20;;;7.30;99.90;;;;;;4971350;28;20541;-73
2021/10/08 02:23:41;;;;;;;0.40;0.20;;;7.50;99.90;;;;;;4971284;28;20472;-73
2021/10/08 02:26:06;;;;;;;0.40;0.20;;;7.20;99.90;;;;;;4970724;28;20752;-73
2021/10/08 02:28:32;;;;;;;0.40;0.20;;;7.30;99.90;;;;;;4971334;28;20419;-73
2021/10/08 02:30:58;;;;;;;0.40;0.20;;;7.40;99.90;;;;;;4973172;28;20848;-73
2021/10/08 02:33:24;;;;;;;0.40;0.20;;;7.20;99.90;;;;;;4974688;28;20424;-73
2021/10/08 02:35:50;;;;;;;0.40;0.20;;;7.30;99.90;;;;;;4974045;28;20426;-73
2021/10/08 02:38:19;;;;;;;0.40;0.20;;;7.30;99.90;;;;;;4974681;28;20426;-73
2021/10/08 02:40:45;;;;;;;0.40;0.20;;;7.30;99.90;;;;;;4974591;28;20444;-73
2021/10/08 02:43:11;;;;;;;0.80;0.80;;;7.60;99.90;;;;;;4973669;28;20384;-72
2021/10/08 02:45:37;;;;;;;0.40;0.20;;;7.20;99.90;;;;;;4984755;28;20426;-73
2021/10/08 02:48:03;;;;;;;0.40;0.20;;;7.80;99.90;;;;;;4992979;28;20853;-73
2021/10/08 02:50:30;;;;;;;0.40;0.20;;;7.30;99.90;;;;;;4993576;28;20391;-73
2021/10/08 02:52:55;;;;;;;0.40;0.40;;;6.80;99.90;;;;;;4993212;28;20382;-73
2021/10/08 02:55:21;;;;;;;0.40;0.30;;;7.40;99.90;;;;;;4993720;28;20461;-73
2021/10/08 02:57:47;;;;;;;0.50;0.50;;;7.40;99.90;;;;;;4994068;28;20391;-73
2021/10/08 03:00:13;;;;;;;0.40;0.20;;;7.50;99.90;;;;;;4992820;28;20387;-73
2021/10/08 03:02:39;;;;;;;0.40;0.20;;;7.50;99.90;;;;;;4993743;28;20795;-73
2021/10/08 03:05:07;;;;;;;0.40;0.20;;;7.60;99.90;;;;;;4992680;28;20875;-73
2021/10/08 03:07:32;;;;;;;0.40;0.20;;;7.40;99.90;;;;;;4993237;28;20387;-73
2021/10/08 03:09:58;;;;;;;0.70;0.60;;;7.70;99.90;;;;;;4992971;28;20695;-72
2021/10/08 03:12:24;;;;;;;0.40;0.25;;;7.80;99.90;;;;;;4993360;28;20887;-73
2021/10/08 03:14:50;;;;;;;0.50;0.50;;;7.50;99.90;;;;;;4993407;28;20421;-72
2021/10/08 03:17:15;;;;;;;0.40;0.20;;;7.40;99.90;;;;;;4992738;28;20394;-72
2021/10/08 03:19:41;;;;;;;0.40;0.20;;;6.50;99.90;;;;;;4993406;28;20433;-72
2021/10/08 03:22:08;;;;;;;0.40;0.20;;;7.40;99.90;;;;;;4992609;28;20393;-72
2021/10/08 03:24:34;;;;;;;0.40;0.30;;;7.40;99.90;;;;;;4993069;28;20417;-72
2021/10/08 03:27:00;;;;;;;0.40;0.30;;;7.60;99.90;;;;;;4974925;28;20836;-72
2021/10/08 03:29:26;;;;;;;0.40;0.30;;;7.10;99.90;;;;;;4993290;28;20524;-72
2021/10/08 03:31:51;;;;;;;0.40;0.20;;;7.90;99.90;;;;;;4993048;28;20386;-72
2021/10/08 03:34:17;;;;;;;0.40;0.20;;;7.30;99.90;;;;;;4992512;28;20473;-72
2021/10/08 03:39:10;;;;;;;0.40;0.30;;;7.30;99.90;;;;;;4992266;28;20410;-72
2021/10/08 03:41:38;;;;;;;0.40;0.30;;;8.10;99.90;;;;;;4974663;28;20390;-72
2021/10/08 03:44:04;;;;;;;0.40;0.30;;;7.00;99.90;;;;;;4992724;28;20379;-72
2021/10/08 03:46:37;;;;;;;0.40;0.20;;;7.10;99.90;;;;;;4975828;28;20416;-72
2021/10/08 03:51:33;;;;;;;0.40;0.30;;;7.60;99.90;;;;;;4973298;28;20392;-72
2021/10/08 03:54:00;;;;;;;0.60;0.60;;;7.50;99.90;;;;;;4972571;28;20415;-72
2021/10/08 03:56:27;;;;;;;0.40;0.20;;;7.40;99.90;;;;;;4973551;28;20885;-72
2021/10/08 03:58:53;;;;;;;0.40;0.20;;;7.30;99.90;;;;;;4973343;28;20388;-72
2021/10/08 04:01:19;;;;;;;0.40;0.30;;;7.10;99.90;;;;;;4972401;28;20479;-72
2021/10/08 04:03:45;;;;;;;0.40;0.30;;;7.30;99.90;;;;;;4973410;28;20917;-72
2021/10/08 04:06:10;;;;;;;0.40;0.20;;;7.20;99.90;;;;;;4972382;28;20415;-72
2021/10/08 04:08:36;;;;;;;0.40;0.30;;;7.20;99.90;;;;;;4973287;28;20408;-72
2021/10/08 04:11:02;;;;;;;0.40;0.20;;;7.20;99.90;;;;;;4972444;28;20388;-72
2021/10/08 04:13:27;;;;;;;0.40;0.25;;;7.20;99.90;;;;;;4972831;28;20792;-72
2021/10/08 04:15:53;;;;;;;0.40;0.20;;;7.20;99.90;;;;;;4955656;28;20396;-72
2021/10/08 04:18:18;;;;;;;0.40;0.20;;;7.20;99.90;;;;;;4972199;28;20657;-72
2021/10/08 04:20:44;;;;;;;0.40;0.20;;;7.50;99.90;;;;;;4972872;28;20868;-72
2021/10/08 04:23:10;;;;;;;0.40;0.20;;;7.10;99.90;;;;;;4971736;28;20400;-72
2021/10/08 04:25:36;;;;;;;0.40;0.20;;;7.00;99.90;;;;;;4972620;28;20425;-73
2021/10/08 04:28:02;;;;;;;1.40;0.90;;;7.00;99.90;;;;;;4971418;28;20412;-73
2021/10/08 04:30:27;;;;;;;0.40;0.28;;;7.10;99.90;;;;;;4971995;28;20408;-72
2021/10/08 04:32:53;;;;;;;0.47;0.45;;;7.10;99.90;;;;;;4972438;28;20388;-72
2021/10/08 04:35:19;;;;;;;0.40;0.20;;;7.00;99.90;;;;;;4980455;28;20556;-72
2021/10/08 04:37:44;;;;;;;0.40;0.20;;;7.10;99.90;;;;;;4991226;28;20409;-72
2021/10/08 04:40:11;;;;;;;0.40;0.20;;;6.90;99.90;;;;;;4973435;28;20473;-73
2021/10/08 04:42:37;;;;;;;0.40;0.20;;;7.00;99.90;;;;;;4988738;28;20394;-72
2021/10/08 04:45:03;;;;;;;0.40;0.20;;;7.20;99.90;;;;;;4991135;28;20748;-72
2021/10/08 04:47:29;;;;;;;0.60;0.60;;;7.00;99.90;;;;;;4991934;28;20419;-73
2021/10/08 04:49:55;;;;;;;0.40;0.30;;;6.90;99.90;;;;;;4974165;28;20477;-73
2021/10/08 04:52:20;;;;;;;0.40;0.30;;;7.10;99.90;;;;;;4990984;28;20386;-73
2021/10/08 04:54:46;;;;;;;0.40;0.20;;;7.00;99.90;;;;;;4991981;28;20558;-73
2021/10/08 04:57:12;;;;;;;0.40;0.20;;;6.90;99.90;;;;;;4990770;28;20478;-73
2021/10/08 04:59:38;;;;;;;0.40;0.20;;;8.00;99.90;;;;;;4986521;28;20908;-73
2021/10/08 05:02:03;;;;;;;0.40;0.20;;;7.00;99.90;;;;;;4980431;28;20424;-73
2021/10/08 05:04:29;;;;;;;0.40;0.30;;;6.90;99.90;;;;;;4988206;28;20383;-73
2021/10/08 05:06:55;;;;;;;0.40;0.20;;;7.60;99.90;;;;;;4991656;28;20565;-72
2021/10/08 05:09:21;;;;;;;0.55;0.55;;;7.60;99.90;;;;;;4990651;28;20462;-72
2021/10/08 05:11:47;;;;;;;0.40;0.30;;;7.00;99.90;;;;;;4981940;28;20862;-72
2021/10/08 05:14:12;;;;;;;0.40;0.20;;;6.90;99.90;;;;;;4977510;28;20376;-72
2021/10/08 05:16:39;;;;;;;0.40;0.40;;;7.10;99.90;;;;;;4986495;28;20848;-72
2021/10/08 05:19:05;;;;;;;0.40;0.20;;;6.90;99.90;;;;;;4990624;28;20386;-72
2021/10/08 05:21:31;;;;;;;0.40;0.30;;;6.90;99.90;;;;;;4991273;28;20882;-72
2021/10/08 05:23:57;;;;;;;0.50;0.50;;;7.10;99.90;;;;;;4991201;28;20386;-72
2021/10/08 05:26:23;;;;;;;0.40;0.20;;;7.00;99.90;;;;;;4989784;28;20505;-72
2021/10/08 05:28:48;;;;;;;0.50;0.50;;;7.00;99.90;;;;;;4991312;28;20501;-72
2021/10/08 05:31:14;;;;;;;0.40;0.20;;;7.10;99.90;;;;;;4990605;28;20426;-72
2021/10/08 05:33:40;;;;;;;0.40;0.20;;;7.30;99.90;;;;;;4991029;28;20387;-72
2021/10/08 05:36:06;;;;;;;0.40;0.20;;;7.10;99.90;;;;;;4990472;28;20396;-72
2021/10/08 05:38:32;;;;;;;0.40;0.20;;;7.20;99.90;;;;;;4991347;28;20418;-72
2021/10/08 05:40:58;;;;;;;0.40;0.40;;;7.20;99.90;;;;;;4991289;28;20383;-72
2021/10/08 05:43:23;;;;;;;0.40;0.20;;;7.30;99.90;;;;;;4990371;28;20421;-72
2021/10/08 05:45:49;;;;;;;0.40;0.30;;;7.90;99.90;;;;;;4983409;28;20451;-73
2021/10/08 05:48:15;;;;;;;0.70;0.60;;;7.30;99.90;;;;;;4988169;28;20457;-73
2021/10/08 05:50:41;;;;;;;1.80;1.40;;;7.00;99.90;;;;;;4990579;28;20437;-72
2021/10/08 05:53:11;;;;;;;0.40;0.40;;;7.40;99.90;;;;;;4990118;28;20453;-72
2021/10/08 05:55:38;;;;;;;0.40;0.20;;;7.50;99.90;;;;;;4991113;28;20414;-72
2021/10/08 05:58:06;;;;;;;0.47;0.40;;;7.60;99.90;;;;;;4988552;28;20456;-72
2021/10/08 06:00:32;;;;;;;0.40;0.20;;;7.50;99.90;;;;;;4991211;28;20387;-73
2021/10/08 06:02:57;;;;;;;0.52;0.28;;;7.40;99.90;;;;;;4991791;28;20485;-72
2021/10/08 06:05:23;;;;;;;0.40;0.20;;;8.00;99.90;;;;;;4992633;28;20501;-73
2021/10/08 06:07:49;;;;;;;0.40;0.30;;;7.60;99.90;;;;;;4995363;28;20409;-73
2021/10/08 06:10:15;;;;;;;0.40;0.20;;;8.30;99.90;;;;;;4994593;28;20901;-73
2021/10/08 06:12:41;;;;;;;0.40;0.20;;;8.00;99.90;;;;;;4990221;28;20396;-73
2021/10/08 06:15:08;;;;;;;0.40;0.20;;;8.10;99.90;;;;;;4981642;28;20487;-73
2021/10/08 06:17:34;;;;;;;0.70;0.57;;;8.20;99.90;;;;;;4987575;28;20394;-73
2021/10/08 06:19:59;;;;;;;0.40;0.30;;;8.20;99.90;;;;;;4982805;28;20759;-73
2021/10/08 06:22:25;;;;;;;0.40;0.20;;;8.10;99.90;;;;;;4986630;28;20424;-73
2021/10/08 06:24:50;;;;;;;0.40;0.20;;;7.50;99.90;;;;;;4985079;28;20431;-73
2021/10/08 06:27:16;;;;;;;0.40;0.30;;;8.70;99.90;;;;;;4985281;28;20439;-73
2021/10/08 06:29:42;;;;;;;0.40;0.30;;;8.20;99.90;;;;;;4984430;28;20857;-71
2021/10/08 06:32:07;;;;;;;0.50;0.50;;;8.30;99.90;;;;;;4985021;28;20381;-72
2021/10/08 06:34:34;;;;;;;0.40;0.20;;;8.40;99.90;;;;;;4986599;28;20410;-71
2021/10/08 06:37:00;;;;;;;0.40;0.20;;;8.40;99.90;;;;;;4985529;28;20447;-72
2021/10/08 06:39:26;;;;;;;1.30;1.00;;;8.80;99.90;;;;;;4987897;28;20418;-71
2021/10/08 06:41:51;;;;;;;1.17;1.08;;;7.70;99.90;;;;;;4994512;28;20386;-73
2021/10/08 06:44:18;;;;;;;1.50;1.30;;;8.00;99.90;;;;;;4987802;28;20887;-71
2021/10/08 06:46:44;;;;;;;0.40;0.20;;;8.70;99.90;;;;;;4994189;28;20446;-73
2021/10/08 06:49:10;;;;;;;0.40;0.20;;;8.40;99.90;;;;;;4993361;28;20464;-71
2021/10/08 06:51:37;;;;;;;0.40;0.20;;;8.60;99.90;;;;;;4994542;28;20382;-71
2021/10/08 06:54:03;;;;;;;1.50;0.80;;;8.40;99.90;;;;;;4993770;28;20422;-72
2021/10/08 06:56:30;;;;;;;0.40;0.20;;;8.50;99.90;;;;;;4993673;28;20391;-72
2021/10/08 06:58:56;;;;;;;1.10;1.00;;;8.70;99.90;;;;;;4993964;28;20556;-72
2021/10/08 07:01:22;;;;;;;0.40;0.20;;;8.70;99.90;;;;;;4992780;28;20900;-72
2021/10/08 07:03:48;;;;;;;0.50;0.50;;;8.80;99.90;;;;;;4993753;28;20755;-72
2021/10/08 07:06:14;;;;;;;0.60;0.60;;;8.50;99.90;;;;;;4993071;28;20414;-72
2021/10/08 07:08:40;;;;;;;0.40;0.20;;;9.00;99.90;;;;;;4994009;28;20383;-72
2021/10/08 07:11:06;;;;;;;0.40;0.20;;;9.10;99.90;;;;;;4992832;28;20399;-72
2021/10/08 07:13:31;;;;;;;0.40;0.20;;;8.90;99.90;;;;;;4993710;28;20410;-72
2021/10/08 07:15:58;;;;;;;0.80;0.80;;;9.20;99.90;;;;;;4992738;28;20394;-72
2021/10/08 07:18:33;;;;;;;0.80;0.80;;;9.00;99.90;;;;;;4992746;28;20410;-72
2021/10/08 07:20:59;;;;;;;0.80;0.80;;;9.20;99.90;;;;;;4975981;28;20394;-72
2021/10/08 07:23:25;;;;;;;0.40;0.30;;;9.20;99.90;;;;;;4992758;28;20398;-72
2021/10/08 07:25:51;;;;;;;0.60;0.50;;;9.20;99.90;;;;;;4993281;28;20960;-72
2021/10/08 07:28:17;;;;;;;0.40;0.40;;;9.00;99.90;;;;;;4992332;28;20493;-72
2021/10/08 07:30:43;;;;;;;0.90;0.90;;;9.20;99.90;;;;;;4993554;28;20394;-72
2021/10/08 07:33:09;;;;;;;0.50;0.40;;;9.20;99.90;;;;;;4992538;28;20532;-72
2021/10/08 07:35:34;;;;;;;0.40;0.30;;;9.50;99.90;;;;;;4993496;28;20415;-72
2021/10/08 07:38:00;;;;;;;0.40;0.30;;;9.50;99.90;;;;;;4993513;28;20389;-72
2021/10/08 07:40:27;;;;;;;0.40;0.30;;;9.40;99.90;;;;;;4992829;28;20874;-72
2021/10/08 07:42:53;;;;;;;0.50;0.50;;;9.50;99.90;;;;;;4993133;28;20398;-72
2021/10/08 07:45:19;;;;;;;0.40;0.30;;;9.60;99.90;;;;;;4992389;28;20418;-73
2021/10/08 07:47:45;;;;;;;0.40;0.20;;;9.50;99.90;;;;;;4993182;28;20741;-72
2021/10/08 07:50:11;;;;;;;0.40;0.30;;;9.30;99.90;;;;;;4992446;28;20438;-73
2021/10/08 07:52:37;;;;;;;0.50;0.50;;;9.70;99.90;;;;;;4993216;28;20394;-72
2021/10/08 07:55:08;;;;;;;0.40;0.20;;;9.80;99.90;;;;;;4983683;28;20416;-72
2021/10/08 07:57:35;;;;;;;0.40;0.20;;;9.80;99.90;;;;;;4974817;28;20917;-72
2021/10/08 08:00:01;;;;;;;0.50;0.50;;;9.80;99.90;;;;;;4992059;28;20444;-73
2021/10/08 08:02:28;;;;;;;0.40;0.28;;;9.90;99.90;;;;;;4989299;28;20422;-72
2021/10/08 08:04:55;;;;;;;0.40;0.30;;;9.90;99.90;;;;;;4975086;28;20477;-72
2021/10/08 08:07:22;;;;;;;0.60;0.60;;;10.00;99.90;;;;;;4991228;28;20383;-72
2021/10/08 08:09:47;;;;;;;0.40;0.20;;;10.10;99.90;;;;;;4983416;28;20401;-72
2021/10/08 08:12:13;;;;;;;0.40;0.30;;;10.10;99.90;;;;;;4990666;28;20879;-72
2021/10/08 08:14:39;;;;;;;0.47;0.47;;;10.10;99.90;;;;;;4991059;28;20410;-72
2021/10/08 08:17:04;;;;;;;0.60;0.50;;;10.20;99.90;;;;;;4986760;28;20455;-73
2021/10/08 08:19:30;;;;;;;0.40;0.30;;;10.30;99.90;;;;;;4991119;28;20382;-73
2021/10/08 08:21:56;;;;;;;0.40;0.30;;;10.30;99.90;;;;;;4991696;28;20398;-73
2021/10/08 08:24:21;;;;;;;0.40;0.40;;;10.50;99.90;;;;;;4990973;28;20393;-73
2021/10/08 08:26:47;;;;;;;0.40;0.20;;;10.50;99.90;;;;;;4991178;28;20419;-74
2021/10/08 08:29:12;;;;;;;0.40;0.20;;;10.50;99.90;;;;;;4990674;28;20402;-73
2021/10/08 08:31:38;;;;;;;0.40;0.20;;;10.60;99.90;;;;;;4991898;28;20387;-72
2021/10/08 08:34:04;;;;;;;0.40;0.30;;;10.80;99.90;;;;;;4991196;28;20913;-72
2021/10/08 08:36:30;;;;;;;0.40;0.20;;;10.80;99.90;;;;;;4990396;28;20414;-72
2021/10/08 08:38:59;;;;;;;0.63;0.63;;;10.90;99.90;;;;;;4990655;28;20391;-72
2021/10/08 08:41:25;;;;;;;0.70;0.70;;;11.10;99.90;;;;;;4990996;28;20390;-72
2021/10/08 08:43:52;;;;;;;0.40;0.20;;;11.20;99.90;;;;;;4957852;28;20511;-72
2021/10/08 08:46:18;;;;;;;0.50;0.50;;;11.30;99.90;;;;;;4990108;28;20969;-72
2021/10/08 08:48:43;;;;;;;0.60;0.60;;;11.40;99.90;;;;;;4991672;28;20391;-72
2021/10/08 08:51:09;;;;;;;0.40;0.20;;;11.30;99.90;;;;;;4988435;28;20391;-73
2021/10/08 08:53:35;;;;;;;0.90;0.47;;;11.30;99.90;;;;;;4989059;28;20383;-72
2021/10/08 08:56:01;;;;;;;1.80;1.00;;;11.50;99.90;;;;;;4991106;28;20402;-72
2021/10/08 08:58:27;;;;;;;0.40;0.20;;;11.70;99.90;;;;;;4974429;28;20394;-72
2021/10/08 09:00:58;;;;;;;0.40;0.20;;;11.70;99.90;;;;;;4990906;28;20390;-72
2021/10/08 09:03:24;;;;;;;0.40;0.32;;;11.90;99.90;;;;;;4989991;28;20902;-72
2021/10/08 09:05:50;;;;;;;0.50;0.50;;;12.10;99.90;;;;;;4991456;28;20421;-72
2021/10/08 09:08:16;;;;;;;0.40;0.40;;;12.40;99.90;;;;;;4990604;28;20771;-73
2021/10/08 09:10:47;;;;;;;0.90;0.90;;;12.30;99.90;;;;;;4990514;28;20382;-72
2021/10/08 09:13:16;;;;;;;0.40;0.30;;;12.50;99.90;;;;;;4990923;28;20394;-74
2021/10/08 09:15:52;;;;;;;0.60;0.50;;;12.50;99.90;;;;;;4991018;28;20391;-72
2021/10/08 09:18:19;;;;;;;0.40;0.30;;;12.40;99.90;;;;;;4990656;28;20394;-73
2021/10/08 09:21:06;;;;;;;0.40;0.30;;;12.40;99.90;;;;;;4991041;28;20441;-73
2021/10/08 09:23:37;;;;;;;0.40;0.20;;;12.70;99.90;;;;;;4989904;28;20389;-73
2021/10/08 09:26:12;;;;;;;0.40;0.20;;;13.00;99.90;;;;;;4988440;28;21010;-74
2021/10/08 09:28:58;;;;;;;0.40;0.30;;;13.20;99.90;;;;;;4978137;28;20494;-73
2021/10/08 09:31:44;;;;;;;0.40;0.20;;;13.20;99.90;;;;;;4990108;28;20382;-73
2021/10/08 09:34:11;;;;;;;0.40;0.30;;;13.10;99.90;;;;;;4971644;28;20411;-73
2021/10/08 09:36:38;;;;;;;0.50;0.50;;;13.00;99.90;;;;;;4977309;28;20489;-72
2021/10/08 09:39:19;;;;;;;0.40;0.30;;;13.00;99.90;;;;;;4989052;28;20871;-73
2021/10/08 09:41:54;;;;;;;0.40;0.30;;;13.10;99.90;;;;;;4991060;28;20755;-72
2021/10/08 09:44:21;;;;;;;0.40;0.20;;;13.30;99.90;;;;;;4993814;28;20847;-73
2021/10/08 09:46:47;;;;;;;0.40;0.20;;;13.60;99.90;;;;;;4994544;28;20430;-73
2021/10/08 09:49:22;;;;;;;0.40;0.30;;;13.90;99.90;;;;;;4992250;28;20494;-73
2021/10/08 09:51:48;;;;;;;0.40;0.30;;;13.90;99.90;;;;;;4987815;28;20394;-73
2021/10/08 09:54:14;;;;;;;0.40;0.20;;;14.10;99.90;;;;;;4993943;28;20394;-74
2021/10/08 09:56:41;;;;;;;0.40;0.30;;;14.10;99.90;;;;;;4994218;28;20413;-72
2021/10/08 09:59:12;;;;;;;1.30;0.70;;;14.50;99.90;;;;;;4994618;28;20394;-73
2021/10/08 10:01:41;;;;;;;0.40;0.20;;;14.80;99.90;;;;;;4993957;28;20929;-73
2021/10/08 10:04:11;;;;;;;0.50;0.40;;;15.20;99.90;;;;;;4994640;28;20474;-73
2021/10/08 10:06:38;;;;;;;0.40;0.30;;;15.50;99.90;;;;;;4993260;28;20796;-73
2021/10/08 10:09:07;;;;;;;0.40;0.20;;;15.60;99.90;;;;;;4993632;28;20387;-73
2021/10/08 10:11:34;;;;;;;0.40;0.35;;;15.60;99.90;;;;;;4990882;28;20401;-72
2021/10/08 10:14:00;;;;;;;0.40;0.20;;;15.80;99.90;;;;;;4993837;28;20386;-72
2021/10/08 10:16:29;;;;;;;0.40;0.40;;;15.90;99.90;;;;;;4991321;28;20433;-72
2021/10/08 10:18:56;;;;;;;0.40;0.20;;;16.00;99.90;;;;;;4994094;28;20394;-72
2021/10/08 10:21:29;;;;;;;0.40;0.20;;;16.10;99.90;;;;;;4993438;28;20383;-72
2021/10/08 10:23:59;;;;;;;0.40;0.20;;;16.20;99.90;;;;;;4988941;28;20390;-73
2021/10/08 10:26:27;;;;;;;0.40;0.20;;;16.30;99.90;;;;;;4993432;28;20428;-72
2021/10/08 10:28:55;;;;;;;0.40;0.22;;;16.30;99.90;;;;;;4991995;28;20914;-72
2021/10/08 10:31:21;;;;;;;0.40;0.40;;;16.30;99.90;;;;;;4993539;28;20457;-72
2021/10/08 10:33:48;;;;;;;0.40;0.30;;;16.50;99.90;;;;;;4994353;28;20382;-72
2021/10/08 10:36:27;;;;;;;0.40;0.30;;;16.50;99.90;;;;;;4997458;28;20390;-72
2021/10/08 10:39:13;;;;;;;0.50;0.40;;;16.70;99.90;;;;;;4993230;28;20411;-72
2021/10/08 10:41:39;;;;;;;0.40;0.20;;;16.70;99.90;;;;;;4992673;28;21078;-71
2021/10/08 10:44:34;;;;;;;0.40;0.40;;;16.80;99.90;;;;;;4993077;28;20399;-72
2021/10/08 10:47:20;;;;;;;1.00;0.80;;;16.90;99.90;;;;;;4991825;28;20921;-72
2021/10/08 10:49:51;;;;;;;0.40;0.30;;;17.10;99.90;;;;;;4989817;28;20876;-72
2021/10/08 10:52:22;;;;;;;0.40;0.38;;;17.20;99.90;;;;;;4992292;28;20478;-73
2021/10/08 10:54:49;;;;;;;0.40;0.20;;;17.60;99.90;;;;;;4993377;28;20469;-72
2021/10/08 10:57:18;;;;;;;0.43;0.43;;;17.80;99.90;;;;;;4976202;28;20811;-72
2021/10/08 10:59:44;;;;;;;0.50;0.50;;;17.70;99.40;;;;;;4993079;28;20398;-72
2021/10/08 11:02:30;;;;;;;0.40;0.40;;;18.10;99.90;;;;;;4993313;28;20445;-72
2021/10/08 11:05:12;;;;;;;0.40;0.30;;;18.60;99.20;;;;;;4994029;28;20413;-72
2021/10/08 11:08:12;;;;;;;0.40;0.20;;;18.70;97.10;;;;;;4988425;28;20471;-72
2021/10/08 11:11:00;;;;;;;0.40;0.30;;;19.40;96.20;;;;;;4978266;28;20479;-72
2021/10/08 11:13:36;;;;;;;0.50;0.40;;;20.00;94.40;;;;;;4973816;28;20396;-72
2021/10/08 11:16:06;;;;;;;0.50;0.30;;;20.10;94.70;;;;;;4974382;28;20561;-72
2021/10/08 11:18:49;;;;;;;0.40;0.20;;;20.40;93.00;;;;;;4973417;28;20395;-72
2021/10/08 11:21:27;;;;;;;0.50;0.30;;;21.20;91.90;;;;;;4974197;28;20809;-71
2021/10/08 11:23:58;;;;;;;0.40;0.20;;;20.80;91.30;;;;;;4974167;28;20503;-71
2021/10/08 11:26:24;;;;;;;0.40;0.30;;;21.40;89.10;;;;;;4973539;28;20418;-71
2021/10/08 11:28:50;;;;;;;0.40;0.25;;;21.60;87.00;;;;;;4973669;28;20588;-70
2021/10/08 11:31:21;;;;;;;0.40;0.20;;;21.70;87.80;;;;;;4986927;28;20900;-71
2021/10/08 11:33:55;;;;;;;0.40;0.30;;;21.70;86.90;;;;;;4976615;28;20390;-71
2021/10/08 11:36:24;;;;;;;0.40;0.20;;;21.40;85.20;;;;;;4991680;28;20394;-73
2021/10/08 11:39:06;;;;;;;0.40;0.30;;;21.00;84.10;;;;;;4990316;28;20388;-72
2021/10/08 11:41:32;;;;;;;0.40;0.20;;;22.00;86.20;;;;;;4972573;28;20392;-72
2021/10/08 11:44:22;;;;;;;0.40;0.20;;;22.30;85.10;;;;;;4973260;28;20396;-71
2021/10/08 11:47:11;;;;;;;0.40;0.20;;;21.40;82.90;;;;;;4981890;28;20426;-71
2021/10/08 11:49:46;;;;;;;0.90;0.60;;;21.30;85.20;;;;;;4972814;28;20404;-72
2021/10/08 11:52:13;;;;;;;0.40;0.20;;;22.00;82.60;;;;;;4973624;28;20877;-71
2021/10/08 11:54:39;;;;;;;0.40;0.30;;;21.30;82.10;;;;;;4973227;28;20692;-72
2021/10/08 11:57:09;;;;;;;0.40;0.30;;;22.00;83.40;;;;;;4973902;28;20467;-72
2021/10/08 11:59:37;;;;;;;0.40;0.30;;;21.80;83.70;;;;;;4973346;28;20389;-72
2021/10/08 12:02:11;;;;;;;0.40;0.40;;;22.20;83.00;;;;;;4973481;28;20741;-72
2021/10/08 12:04:37;;;;;;;0.40;0.20;;;22.20;82.50;;;;;;4973174;28;20403;-72
2021/10/08 12:07:11;;;;;;;0.40;0.30;;;21.50;82.00;;;;;;4973233;28;20424;-72
2021/10/08 12:09:37;;;;;;;0.80;0.60;;;21.40;83.90;;;;;;4972570;28;20388;-72
2021/10/08 12:12:20;;;;;;;0.40;0.20;;;21.30;82.90;;;;;;4973067;28;20783;-71
2021/10/08 12:14:47;;;;;;;0.60;0.50;;;21.90;80.60;;;;;;4973640;28;20388;-71
2021/10/08 12:17:13;;;;;;;0.40;0.20;;;22.00;80.70;;;;;;4973700;28;20427;-72
2021/10/08 12:19:39;;;;;;;0.40;0.20;;;21.80;81.90;;;;;;4972624;28;20385;-72
2021/10/08 12:22:05;;;;;;;0.40;0.20;;;22.10;81.70;;;;;;4973504;28;20920;-72
2021/10/08 12:24:34;;;;;;;0.40;0.30;;;21.70;84.00;;;;;;4972630;28;20384;-72
2021/10/08 12:27:05;;;;;;;0.50;0.40;;;21.10;82.80;;;;;;4973067;28;20424;-72
2021/10/08 12:29:41;;;;;;;0.40;0.20;;;20.80;82.40;;;;;;4972720;28;20396;-72
2021/10/08 12:32:15;;;;;;;0.40;0.30;;;20.70;84.20;;;;;;4973177;28;20396;-72
2021/10/08 12:34:47;;;;;;;0.40;0.20;;;20.90;87.40;;;;;;4972544;28;20933;-72
2021/10/08 12:37:19;;;;;;;0.40;0.30;;;20.90;84.20;;;;;;4973154;28;20392;-72
2021/10/08 12:40:14;;;;;;;0.40;0.30;;;20.40;84.20;;;;;;4955157;28;20745;-72
2021/10/08 12:42:45;;;;;;;0.40;0.20;;;20.40;86.90;;;;;;4972528;28;20452;-72
2021/10/08 12:45:20;;;;;;;0.40;0.25;;;20.40;86.30;;;;;;4979859;28;20875;-72
2021/10/08 12:47:48;;;;;;;0.40;0.20;;;20.60;86.40;;;;;;4991666;28;20398;-72
2021/10/08 12:50:36;;;;;;;0.40;0.20;;;20.90;85.90;;;;;;4992104;28;20393;-72
2021/10/08 12:53:14;;;;;;;0.40;0.30;;;21.10;86.60;;;;;;4992735;28;20398;-72
2021/10/08 12:55:40;;;;;;;0.40;0.20;;;21.00;83.70;;;;;;4991770;28;20737;-72
2021/10/08 12:58:23;;;;;;;0.40;0.20;;;20.90;83.90;;;;;;4991939;28;20413;-72
2021/10/08 13:00:57;;;;;;;0.40;0.23;;;21.20;86.90;;;;;;4992323;28;20394;-72
2021/10/08 13:03:34;;;;;;;0.40;0.30;;;21.00;85.90;;;;;;4991547;28;20389;-72